Nearby METAR Reports

 

YSRI - Richmond (aus-Af, Australia
Distance from station: WSW 35km
Updated: 19/01/2021 09:30
Overcast
Overcast
 Wind from SSW
Wind: SSW 11 km/h
Temperature: 23°C
Dew Point: 19°C
Humidity: 78%
Barometer: 1016 hPa
Clouds: Overcast
Visibility: 10 km
Cloud details: Mostly cloudy 732 m
Overcast 853 m
Overcast 1189 m
2021/01/18 22:30 YSRI 182230Z AUTO 21006KT 9999 // BKN024 OVC028 OVC039 23/19 Q1016
YSSY - Sydney Intl Airp, Australia
Distance from station: S 47km
Updated: 19/01/2021 09:30
Mostly cloudy
Mostly cloudy
 Wind from SSE
Wind: SSE 35 km/h
Temperature: 22°C
Dew Point: 17°C
Humidity: 73%
Barometer: 1016 hPa
Clouds: Mostly cloudy
Visibility: 10 km
Cloud details: Mostly cloudy 701 m
2021/01/18 22:30 YSSY 182230Z 16019KT 9999 BKN023 22/17 Q1016
 
YWLM - Williamtown Arp, Australia
Distance from station: NE 104km
Updated: 19/01/2021 09:30
Light rain, Showers, Nearby thunderstorm, Mostly cloudy
Light rain, Showers, Nearby thunderstorm, Mostly cloudy
 Wind from S
Wind: S 24 km/h
Temperature: 25°C
Dew Point: 22°C
Humidity: 83%
Barometer: 1014 hPa
Summary: Light rain, Showers, Nearby thunderstorm
Clouds: Mostly cloudy
Visibility: 10 km
Cloud details: Partly cloudy 427 m
Mostly cloudy 701 m
2021/01/18 22:30 YWLM 182230Z 19013KT 9999 4000SW -SHRA VCTS SCT014 BKN023 25/22 Q1014
YSNW - Nowra (aus-Navy), Australia
Distance from station: SSW 168km
Updated: 19/01/2021 09:00
Mostly cloudy
Mostly cloudy
 Wind from SSE
Wind: SSE 22 km/h
Temperature: 19°C
Dew Point: 14°C
Humidity: 73%
Barometer: 1017 hPa
Clouds: Mostly cloudy
Visibility: 10 km
Cloud details: Mostly cloudy 823 m
2021/01/18 22:00 YSNW 182200Z 16012KT 9999 BKN027 19/14 Q1017
 
YMDG - Mudgee Arpt, Australia
Distance from station: NW 177km
Updated: 19/01/2021 09:00
Clear
Clear
 Wind from SSW
Wind: SSW 4 km/h
Temperature: 21°C
Dew Point: 9°C
Humidity: 46%
Barometer: 1016 hPa
Clouds: Clear
Visibility: 10 km
2021/01/18 22:00 YMDG 182200Z AUTO 21002KT 9999 // NCD 21/09 Q1016
YTRE - Taree Airport, Australia
Distance from station: NE 224km
Updated: 19/01/2021 09:00
Clear
Clear
 Wind from SSW
Wind: SSW 13 km/h
Temperature: 26°C
Dew Point: 15°C
Humidity: 51%
Barometer: 1013 hPa
Clouds: Clear
Visibility: 10 km
2021/01/18 22:00 YTRE 182200Z AUTO 21007KT 9999 // NCD 26/15 Q1013
 
YSCB - Canberra (civ/Mi, Australia
Distance from station: SW 265km
Updated: 19/01/2021 09:30
Clear
Clear
 Wind from S
Wind: S 9 km/h
Temperature: 20°C
Dew Point: 4°C
Humidity: 35%
Barometer: 1018 hPa
Clouds: Clear
Visibility: 10 km
2021/01/18 22:30 YSCB 182230Z AUTO 17005KT 140V200 9999 // NCD 20/04 Q1018
YSTW - Tamworth Airport, Australia
Distance from station: N 275km
Updated: 19/01/2021 09:30
Clear
Clear
 Wind from SE
Wind: SE 4 km/h
Temperature: 22°C
Dew Point: 16°C
Humidity: 69%
Barometer: 1017 hPa
Clouds: Clear
Visibility: 10 km
2021/01/18 22:30 YSTW 182230Z AUTO 14002KT 9999 // NCD 22/16 Q1017 RF00.0/000.0
 
YSDU - Dubbo, Australia
Distance from station: WNW 280km
Updated: 19/01/2021 09:30
Clear
Clear
 Wind from SSE
Wind: SSE 11 km/h
Temperature: 25°C
Dew Point: 6°C
Humidity: 30%
Barometer: 1016 hPa
Clouds: Clear
Visibility: 10 km
2021/01/18 22:30 YSDU 182230Z AUTO 15006KT 9999 // NCD 25/06 Q1016 RF00.0/000.0
YPMQ - Port Macquarie, Australia
Distance from station: NE 284km
Updated: 19/01/2021 06:25
NOT Current
Partly cloudy
Partly cloudy
 Wind from WNW
Wind: WNW 9 km/h
Temperature: 19°C
Dew Point: 19°C
Humidity: 100%
Barometer: 1010 hPa
Clouds: Partly cloudy
Visibility: 10 km
Cloud details: Partly cloudy 30 m
2021/01/18 19:25 YPMQ 181925Z AUTO 30005KT 9999 // SCT001 19/19 Q1010
 
YCBB - Coonabarabran, Australia
Distance from station: NW 300km
Updated: 19/01/2021 09:00
Clear
Clear
 Wind from S
Wind: S 9 km/h
Temperature: 23°C
Dew Point: 5°C
Humidity: 31%
Barometer: 1017 hPa
Clouds: Clear
Visibility: 10 km
2021/01/18 22:00 YCBB 182200Z AUTO 17005KT 9999 // NCD 23/05 Q1017